Home > Products > Valid Products > TAF

000
FTUS41 KCAR 241600 AAE
TAFHUL
TAF AMD
KHUL 241634Z 2417/2512 01011KT 6SM -RA BR OVC005
     FM241800 35011KT P6SM -RA OVC007
     FM242300 36009KT P6SM OVC015
     FM250300 35007KT P6SM OVC025
     FM250900 33006KT P6SM SCT025 OVC050=



000
FTUS41 KCAR 241600 AAB
TAFBGR
TAF AMD
KBGR 241633Z 2417/2512 35012KT 3SM -RA BR OVC007
     FM250100 34009KT P6SM OVC025
     FM250500 33008KT P6SM SCT025 BKN045=



000
FTUS41 KCAR 241500 AAD
TAFHUL
TAF AMD
KHUL 241508Z 2415/2512 01011KT 4SM RA OVC007
      TEMPO 2415/2418 1SM RA BR OVC003
     FM241800 35011KT P6SM -RA OVC007
     FM242300 36009KT P6SM OVC015
     FM250300 35007KT P6SM OVC025
     FM250900 33006KT P6SM SCT025 OVC050=



000
FTUS41 KCAR 241500 AAC
TAFPQI
TAF AMD
KPQI 241507Z 2415/2512 36012KT 6SM -RA OVC040
      TEMPO 2415/2418 36012G24KT 4SM -RA OVC035
     FM241800 36011KT P6SM -RA OVC025
     FM242300 35010KT P6SM -SHRA OVC025
     FM250400 35006KT P6SM OVC025
      AMD LTD TO CLD VIS AND WIND=



000
FTUS41 KCAR 241500 AAC
TAFCAR
TAF AMD
KCAR 241506Z 2415/2512 01012KT P6SM -RA OVC060
      TEMPO 2415/2418 01015G25KT 4SM -RA BR OVC035
     FM241800 36010KT 6SM -RA OVC025
     FM242000 36010KT 6SM -SHRA OVC015
     FM242300 36009KT 6SM -SHRA OVC025
     FM250800 34005KT P6SM OVC025=



000
FTUS41 KCAR 241400 AAA
TAFBGR
TAF AMD
KBGR 241431Z 2415/2512 36012KT P6SM -RA OVC007
      TEMPO 2415/2417 2SM -DZ BR OVC005
     FM241700 35012KT P6SM -RA SCT008 OVC015
     FM250100 34009KT P6SM OVC025
     FM250500 33008KT P6SM SCT025 BKN045=



000
FTUS41 KCAR 241400 AAA
TAFBGR
TAF AMD
KBGR 241431Z 2415/2512 36012KT P6SM -RA OVC007
      TEMPO 2415/2417 2SM -DZ BR OVC005
     FM241700 35012KT P6SM -RA SCT008 OVC015
     FM250100 34009KT P6SM OVC025
     FM250500 33008KT P6SM SCT025 BKN045=



000
FTUS41 KCAR 241400 AAC
TAFHUL
TAF AMD
KHUL 241429Z 2414/2512 01011KT 4SM RA OVC005
     FM241800 35011KT P6SM -RA OVC007
     FM242300 36009KT P6SM OVC015
     FM250300 35007KT P6SM OVC025
     FM250900 33006KT P6SM SCT025 OVC050=



000
FTUS41 KCAR 241400 AAC
TAFHUL
TAF AMD
KHUL 241429Z 2414/2512 01011KT 4SM RA OVC005
     FM241800 35011KT P6SM -RA OVC007
     FM242300 36009KT P6SM OVC015
     FM250300 35007KT P6SM OVC025
     FM250900 33006KT P6SM SCT025 OVC050=



000
FTUS41 KCAR 241300 AAB
TAFPQI
TAF AMD
KPQI 241341Z 2414/2512 36012G24KT 6SM -RA OVC035
     FM241600 36011KT 5SM -RA OVC015
     FM241700 36011KT P6SM -RA OVC025
     FM242300 35010KT P6SM -SHRA OVC025
     FM250400 35006KT P6SM OVC025
      AMD LTD TO CLD VIS AND WIND=



000
FTUS41 KCAR 241300 AAB
TAFCAR
TAF AMD
KCAR 241340Z 2414/2512 01012G25KT P6SM -RA OVC035
     FM241800 36010KT 6SM -RA OVC025
     FM242000 36010KT 6SM -SHRA OVC015
     FM242300 36009KT 6SM -SHRA OVC025
     FM250800 34005KT P6SM OVC025=



000
FTUS41 KCAR 241300 AAB
TAFHUL
TAF AMD
KHUL 241340Z 2414/2512 01011KT 4SM RA OVC003
     FM241800 35011KT P6SM -RA OVC007
     FM242300 36009KT P6SM OVC015
     FM250300 35007KT P6SM OVC025
     FM250900 33006KT P6SM SCT025 OVC050=



000
FTUS41 KCAR 241300 AAA
TAFPQI
TAF AMD
KPQI 241339Z 2414/2512 36012G24KT P6SM -RA OVC025
     FM241600 36011KT 5SM -RA OVC015
     FM241700 36011KT P6SM -RA OVC025
     FM242300 35010KT P6SM -SHRA OVC025
     FM250400 35006KT P6SM OVC025
      AMD LTD TO CLD VIS AND WIND=



000
FTUS41 KCAR 241300 AAA
TAFBHB
TAF AMD
KBHB 241307Z 2413/2512 36009G16KT P6SM -RA OVC010
      TEMPO 2413/2417 OVC007
     FM250100 34007KT P6SM OVC020
     FM250700 32006KT P6SM BKN035
      AMD LTD TO CLD VIS AND WIND=



000
FTUS41 KCAR 241300 AAA
TAFCAR
TAF AMD
KCAR 241306Z 2413/2512 01015KT 5SM -RA SCT025 OVC050
     FM241400 01011KT P6SM -RA OVC030
     FM241800 36010KT 6SM -RA OVC025
     FM242000 36010KT 6SM -SHRA OVC015
     FM242300 36009KT 6SM -SHRA OVC025
     FM250800 34005KT P6SM OVC025=



000
FTUS41 KCAR 241300 AAA
TAFHUL
TAF AMD
KHUL 241305Z 2413/2512 01011KT 2SM RA OVC003
     FM241800 35011KT P6SM -RA OVC007
     FM242300 36009KT P6SM OVC015
     FM250300 35007KT P6SM OVC025
     FM250900 33006KT P6SM SCT025 OVC050=



000
FTUS41 KCAR 241100
TAFCAR
TAF
KCAR 241123Z 2412/2512 01011KT P6SM +RA SCT025 OVC070
     FM241400 01011KT P6SM +RA OVC030
     FM241800 36010KT 6SM -RA OVC025
     FM242000 36010KT 6SM -SHRA OVC015
     FM242300 36009KT 6SM -SHRA OVC025
     FM250800 34005KT P6SM OVC025=



000
FTUS41 KCAR 241100
TAFPQI
TAF
KPQI 241123Z 2412/2512 01011KT P6SM -RA SCT025 OVC070
     FM241400 36011KT P6SM -RA OVC025
     FM241600 36011KT 5SM -RA OVC015
     FM241700 36011KT P6SM -RA OVC025
     FM242300 35010KT P6SM -SHRA OVC025
     FM250400 35006KT P6SM OVC025
      AMD LTD TO CLD VIS AND WIND=



000
FTUS41 KCAR 241100
TAFBHB
TAF
KBHB 241123Z 2412/2512 36012G22KT P6SM -RA OVC015
      TEMPO 2412/2414 OVC007
     FM250100 34007KT P6SM OVC020
     FM250700 32006KT P6SM BKN035
      AMD LTD TO CLD VIS AND WIND=



000
FTUS41 KCAR 241100
TAFBGR
TAF
KBGR 241123Z 2412/2512 36012KT P6SM -RA OVC007
     FM241500 35012KT P6SM -RA SCT008 OVC015
     FM250100 34009KT P6SM OVC025
     FM250500 33008KT P6SM SCT025 BKN045=



000
FTUS41 KCAR 241100
TAFHUL
TAF
KHUL 241123Z 2412/2512 01012KT 3SM -RA OVC003
     FM241300 01011KT 3SM RA OVC007
     FM241800 35011KT P6SM -RA OVC007
     FM242300 36009KT P6SM OVC015
     FM250300 35007KT P6SM OVC025
     FM250900 33006KT P6SM SCT025 OVC050=



000
FTUS41 KCAR 241000 AAB
TAFHUL
TAF AMD
KHUL 241013Z 2410/2506 02008KT 3SM RA OVC007
      TEMPO 2410/2412 OVC015
     FM241200 01011KT 2SM -RA OVC006
     FM241700 35010KT 3SM -RA OVC007
     FM242000 35010KT P6SM -RA SCT007 OVC015
     FM250000 36009KT P6SM -RA OVC025=



000
FTUS41 KCAR 240700 AAA
TAFHUL
TAF AMD
KHUL 240700Z 2407/2506 02009KT 3SM -RA OVC004
     FM240800 02008KT 3SM +RA OVC007
     FM241200 01011KT 2SM -RA OVC003
     FM241700 35010KT 3SM -RA OVC007
     FM242000 35010KT P6SM -RA SCT007 OVC015
     FM250000 36009KT P6SM -RA OVC025=



000
FTUS41 KCAR 240500 RRA
TAFCAR
TAF
KCAR 240548Z 2406/2506 02010G20KT 5SM -RA SCT025 OVC050
     FM240900 01012G22KT 4SM -RA OVC015
     FM241200 01010KT 5SM -RA OVC015
     FM250100 35007KT P6SM -RA SCT015 OVC025=



000
FTUS41 KCAR 240500 RRA
TAFBGR
TAF
KBGR 240548Z 2406/2506 01010KT 5SM -RA SCT003 OVC007
      TEMPO 2408/2410 3SM RA OVC003
     FM241600 35009KT P6SM -RA SCT007 OVC015
     FM250500 33007KT P6SM OVC025=



000
FTUS41 KCAR 240500 RRA
TAFBHB
TAF
KBHB 240548Z 2406/2506 01015KT P6SM -RA SCT007 OVC015
     FM241000 36011KT 3SM -RA OVC007
     FM241600 35010KT P6SM -RA OVC015
     FM250000 35010KT P6SM SCT007 OVC020
      AMD LTD TO CLD VIS AND WIND=



000
FTUS41 KCAR 240500 RRA
TAFPQI
TAF
KPQI 240548Z 2406/2506 01012G22KT 5SM -RA SCT025 OVC035
     FM240700 01010G20KT 3SM +RA SCT015 OVC025
     FM241000 01010G20KT 5SM -RA SCT007 OVC010
     FM241300 01010G20KT 6SM -RA OVC015
     FM242100 35010G20KT P6SM -RA OVC015
     FM250000 35009KT P6SM OVC020
      AMD LTD TO CLD VIS AND WIND=



000
FTUS41 KCAR 240500 RRA
TAFHUL
TAF
KHUL 240548Z 2406/2506 02009KT 3SM -RA SCT007 OVC015
     FM240800 02008KT 3SM +RA OVC007
     FM241400 01011KT 2SM -RA OVC003
     FM241700 35010KT 3SM -RA OVC007
     FM242000 35010KT P6SM -RA SCT007 OVC015
     FM250000 36009KT P6SM -RA OVC025=



000
FTUS41 KCAR 240500 RRA
TAFHUL
TAF
KHUL 240548Z 2406/2506 02009KT 3SM -RA SCT007 OVC015
     FM240800 02008KT 3SM +RA OVC007
     FM241400 01011KT 2SM -RA OVC003
     FM241700 35010KT 3SM -RA OVC007
     FM242000 35010KT P6SM -RA SCT007 OVC015
     FM250000 36009KT P6SM -RA OVC025=



000
FTUS41 KCAR 240500 RRA
TAFPQI
TAF
KPQI 240548Z 2406/2506 01012G22KT 5SM -RA SCT025 OVC035
     FM240700 01010G20KT 3SM +RA SCT015 OVC025
     FM241000 01010G20KT 5SM -RA SCT007 OVC010
     FM241300 01010G20KT 6SM -RA OVC015
     FM242100 35010G20KT P6SM -RA OVC015
     FM250000 35009KT P6SM OVC020
      AMD LTD TO CLD VIS AND WIND=



000
FTUS41 KCAR 240500 RRA
TAFBGR
TAF
KBGR 240548Z 2406/2506 01010KT 5SM -RA SCT003 OVC007
      TEMPO 2408/2410 3SM RA OVC003
     FM241600 35009KT P6SM -RA SCT007 OVC015
     FM250500 33007KT P6SM OVC025=



000
FTUS41 KCAR 240500 RRA
TAFCAR
TAF
KCAR 240548Z 2406/2506 02010G20KT 5SM -RA SCT025 OVC050
     FM240900 01012G22KT 4SM -RA OVC015
     FM241200 01010KT 5SM -RA OVC015
     FM250100 35007KT P6SM -RA SCT015 OVC025=



000
FTUS41 KCAR 240500 RRA
TAFBHB
TAF
KBHB 240548Z 2406/2506 01015KT P6SM -RA SCT007 OVC015
     FM241000 36011KT 3SM -RA OVC007
     FM241600 35010KT P6SM -RA OVC015
     FM250000 35010KT P6SM SCT007 OVC020
      AMD LTD TO CLD VIS AND WIND=



000
FTUS41 KCAR 240400 AAD
TAFHUL
TAF AMD
KHUL 240408Z 2404/2424 02010G20KT 5SM -RA SCT006 OVC015
      TEMPO 2404/2406 3SM -RA OVC006
     FM240700 01010G18KT 4SM -RA OVC004
     FM241600 36010G18KT 6SM -SHRA OVC015
     FM241800 36010G18KT P6SM VCSH OVC025=



000
FTUS41 KCAR 240400 AAD
TAFHUL
TAF AMD
KHUL 240408Z 2404/2424 02010G20KT 5SM -RA SCT006 OVC015
      TEMPO 2404/2406 3SM -RA OVC006
     FM240700 01010G18KT 4SM -RA OVC004
     FM241600 36010G18KT 6SM -SHRA OVC015
     FM241800 36010G18KT P6SM VCSH OVC025=



000
FTUS41 KCAR 240200 AAC
TAFHUL
TAF AMD
KHUL 240206Z 2402/2424 02009G16KT 4SM -RA OVC007
     FM240400 02009G16KT 2SM RA BR OVC005
     FM241200 01010G18KT 4SM -RA OVC009
     FM241600 36010G18KT 6SM -SHRA OVC015
     FM241800 36010G18KT P6SM VCSH OVC025=



000
FTUS41 KCAR 240200 AAC
TAFHUL
TAF AMD
KHUL 240206Z 2402/2424 02009G16KT 4SM -RA OVC007
     FM240400 02009G16KT 2SM RA BR OVC005
     FM241200 01010G18KT 4SM -RA OVC009
     FM241600 36010G18KT 6SM -SHRA OVC015
     FM241800 36010G18KT P6SM VCSH OVC025=



000
FTUS41 KCAR 240200 AAB
TAFHUL
TAF AMD
KHUL 240203Z 2402/2424 02009G16KT 4SM -RA OVC008
     FM240400 02009G16KT 2SM RA BR OVC006
     FM241200 01010G18KT 4SM -RA OVC009
     FM241600 36010G18KT 6SM -SHRA OVC015
     FM241800 36010G18KT P6SM VCSH OVC025=



000
FTUS41 KCAR 240200 AAB
TAFHUL
TAF AMD
KHUL 240203Z 2402/2424 02009G16KT 4SM -RA OVC008
     FM240400 02009G16KT 2SM RA BR OVC006
     FM241200 01010G18KT 4SM -RA OVC009
     FM241600 36010G18KT 6SM -SHRA OVC015
     FM241800 36010G18KT P6SM VCSH OVC025=



000
FTUS41 KCAR 240100 AAB
TAFPQI
TAF AMD
KPQI 240155Z 2402/2424 02009G16KT P6SM -RA OVC035
     FM240300 02009G16KT 5SM -RA OVC025
     FM240500 02009G16KT 3SM -RA OVC012
     FM240800 01009G16KT 2SM RA BR OVC008
     FM241500 36010G18KT 5SM -RA OVC012
     FM242000 35008G15KT 6SM -SHRA OVC018
      AMD LTD TO CLD VIS AND WIND=



000
FTUS41 KCAR 240100 AAB
TAFPQI
TAF AMD
KPQI 240155Z 2402/2424 02009G16KT P6SM -RA OVC035
     FM240300 02009G16KT 5SM -RA OVC025
     FM240500 02009G16KT 3SM -RA OVC012
     FM240800 01009G16KT 2SM RA BR OVC008
     FM241500 36010G18KT 5SM -RA OVC012
     FM242000 35008G15KT 6SM -SHRA OVC018
      AMD LTD TO CLD VIS AND WIND=



000
FTUS41 KCAR 240100 AAA
TAFPQI
TAF AMD
KPQI 240154Z 2402/2424 03009G16KT P6SM -RA OVC035
     FM240300 03009G16KT 5SM -RA OVC025
     FM240500 02009G16KT 3SM -RA OVC012
     FM240800 02009G16KT 2SM RA BR OVC008
     FM241500 01010G18KT 5SM -RA OVC012
     FM242000 36008G15KT 6SM -SHRA OVC018
      AMD LTD TO CLD VIS AND WIND=



000
FTUS41 KCAR 240100 AAA
TAFPQI
TAF AMD
KPQI 240154Z 2402/2424 03009G16KT P6SM -RA OVC035
     FM240300 03009G16KT 5SM -RA OVC025
     FM240500 02009G16KT 3SM -RA OVC012
     FM240800 02009G16KT 2SM RA BR OVC008
     FM241500 01010G18KT 5SM -RA OVC012
     FM242000 36008G15KT 6SM -SHRA OVC018
      AMD LTD TO CLD VIS AND WIND=



000
FTUS41 KCAR 240100 AAA
TAFCAR
TAF AMD
KCAR 240154Z 2402/2424 02009G16KT P6SM -RA OVC035
     FM240300 02009G16KT 5SM -RA OVC022
     FM240600 01009G16KT 3SM -RA BR OVC008
     FM241800 36010G18KT 5SM -RA OVC012
     FM242100 36008G15KT 6SM -SHRA OVC018=



000
FTUS41 KCAR 240100 AAA
TAFCAR
TAF AMD
KCAR 240154Z 2402/2424 02009G16KT P6SM -RA OVC035
     FM240300 02009G16KT 5SM -RA OVC022
     FM240600 01009G16KT 3SM -RA BR OVC008
     FM241800 36010G18KT 5SM -RA OVC012
     FM242100 36008G15KT 6SM -SHRA OVC018=



000
FTUS41 KCAR 240100 AAA
TAFHUL
TAF AMD
KHUL 240107Z 2401/2424 03009G16KT 4SM -RA OVC009
     FM240400 02009G16KT 2SM RA BR OVC006
     FM241200 01010G18KT 4SM -RA OVC009
     FM241600 36010G18KT 6SM -SHRA OVC015
     FM241800 36010G18KT P6SM VCSH OVC025=



000
FTUS41 KCAR 240000 AAA
TAFBGR
TAF AMD
KBGR 240019Z 2400/2424 02010G18KT 2SM RA BR OVC007
     FM240600 01010G17KT 4SM -RA OVC009
     FM241200 36010G18KT 6SM -SHRA OVC015
     FM241600 36010G18KT P6SM VCSH OVC025
     FM242000 35009G15KT P6SM BKN035=



000
FTUS41 KCAR 232300
TAFCAR
TAF
KCAR 232320Z 2400/2424 03009G16KT P6SM -RA OVC035
     FM240200 03009G16KT 5SM -RA OVC022
     FM240600 02009G16KT 3SM -RA BR OVC008
     FM241800 01010G18KT 5SM -RA OVC012
     FM242100 36008G15KT 6SM -SHRA OVC018=



000
FTUS41 KCAR 232300
TAFBGR
TAF
KBGR 232320Z 2400/2424 03012G20KT 4SM -RA BR OVC008
     FM240200 02010G18KT 2SM RA BR OVC006
     FM240600 01010G17KT 4SM -RA OVC008
     FM241200 36010G18KT 6SM -SHRA OVC015
     FM241600 36010G18KT P6SM VCSH OVC025
     FM242000 35009G15KT P6SM BKN035=



000
FTUS41 KCAR 232300
TAFHUL
TAF
KHUL 232320Z 2400/2424 03009G16KT 6SM -RA OVC015
     FM240200 03009G16KT 4SM -RA OVC009
     FM240400 02009G16KT 2SM RA BR OVC006
     FM241200 01010G18KT 4SM -RA OVC009
     FM241600 36010G18KT 6SM -SHRA OVC015
     FM241800 36010G18KT P6SM VCSH OVC025=



000
FTUS41 KCAR 232300
TAFPQI
TAF
KPQI 232320Z 2400/2424 03009G16KT P6SM -RA OVC035
     FM240200 03009G16KT 5SM -RA OVC025
     FM240500 02009G16KT 3SM -RA OVC012
     FM240800 02009G16KT 2SM RA BR OVC008
     FM241500 01010G18KT 5SM -RA OVC012
     FM242000 36008G15KT 6SM -SHRA OVC018
      AMD LTD TO CLD VIS AND WIND=



000
FTUS41 KCAR 232300
TAFBHB
TAF
KBHB 232320Z 2400/2424 03009G16KT 4SM -RA BR OVC008
     FM240100 02009G16KT 2SM RA BR OVC006
     FM240500 01009G16KT 4SM -RA OVC008
     FM241100 36010G18KT 6SM -SHRA OVC015
     FM241500 36010G18KT P6SM VCSH OVC025
     FM241900 35009G15KT P6SM BKN035
      AMD LTD TO CLD VIS AND WIND=



000
FTUS41 KCAR 232200 AAA
TAFPQI
TAF AMD
KPQI 232222Z 2322/2418 02010G18KT P6SM SCT030 OVC045
     FM240000 04011KT 6SM -RA OVC025
     FM240300 03010KT 4SM -RA BR OVC012
     FM241600 01010KT 3SM -RA BR OVC008
      AMD LTD TO CLD VIS AND WIND=



000
FTUS41 KCAR 232200 AAB
TAFHUL
TAF AMD
KHUL 232218Z 2322/2418 03009G16KT 5SM -RA BR OVC015
     FM240400 02009G16KT 3SM -RA BR OVC008=



000
FTUS41 KCAR 231900 AAA
TAFBHB
TAF AMD
KBHB 231904Z 2319/2418 04012G20KT 6SM -RA BR OVC008
      TEMPO 2319/2322 2SM +RA BR OVC005
     FM232200 02011G18KT 3SM -RA BR OVC005
     FM241300 36009G16KT 6SM -RA BKN003
      AMD LTD TO CLD VIS AND WIND=



000
FTUS41 KCAR 231900 AAA
TAFBHB
TAF AMD
KBHB 231904Z 2319/2418 04012G20KT 6SM -RA BR OVC008
      TEMPO 2319/2322 2SM +RA BR OVC005
     FM232200 02011G18KT 3SM -RA BR OVC005
     FM241300 36009G16KT 6SM -RA BKN003
      AMD LTD TO CLD VIS AND WIND=



000
FTUS41 KCAR 231900 AAA
TAFHUL
TAF AMD
KHUL 231903Z 2319/2418 05012G18KT 6SM -RA SCT015 OVC035
      TEMPO 2321/2401 2SM RA OVC015
     FM240100 03012G20KT 3SM -RA BR OVC008
     FM241300 02009G16KT 5SM -RA OVC008=



000
FTUS41 KCAR 231900 AAA
TAFHUL
TAF AMD
KHUL 231903Z 2319/2418 05012G18KT 6SM -RA SCT015 OVC035
      TEMPO 2321/2401 2SM RA OVC015
     FM240100 03012G20KT 3SM -RA BR OVC008
     FM241300 02009G16KT 5SM -RA OVC008=



000
FTUS41 KCAR 231700
TAFPQI
TAF
KPQI 231723Z 2318/2418 04010G18KT P6SM SCT020 OVC035
     FM232200 04011KT 6SM -RA OVC025
     FM240000 03010KT 4SM -RA BR OVC012
     FM241600 01010KT 3SM -RA BR OVC008
      AMD LTD TO CLD VIS AND WIND=



000
FTUS41 KCAR 231700
TAFCAR
TAF
KCAR 231723Z 2318/2418 04010G18KT P6SM SCT020 OVC035
     FM232200 04011KT 6SM -RA OVC025
     FM240000 03010KT 4SM -RA BR OVC012
     FM241600 01010KT 3SM -RA BR OVC008=



000
FTUS41 KCAR 231700
TAFBHB
TAF
KBHB 231723Z 2318/2418 04015G26KT 5SM -RA BR OVC008
      TEMPO 2318/2322 2SM +RA BR OVC005
     FM232200 02011G18KT 3SM -RA BR OVC005
     FM241300 36009G16KT 6SM -RA BKN003
      AMD LTD TO CLD VIS AND WIND=



000
FTUS41 KCAR 231700
TAFBGR
TAF
KBGR 231723Z 2318/2418 02015G26KT 5SM -RA BR OVC012
      TEMPO 2318/2322 2SM RA BR OVC008
     FM232200 02011G18KT 3SM -RA BR OVC008
     FM241300 36009G16KT 6SM -RA BKN008=



000
FTUS41 KCAR 231700
TAFHUL
TAF
KHUL 231723Z 2318/2418 05012G20KT 6SM -RA OVC015
      TEMPO 2321/2401 2SM RA OVC008
     FM240100 03012G20KT 3SM -RA BR OVC008
     FM241300 02009G16KT 5SM -RA OVC008=



000
FTUS41 KCAR 231600 AAD
TAFBHB
TAF AMD
KBHB 231601Z 2316/2412 05018G28KT 5SM -RA OVC010
      TEMPO 2316/2318 2SM RA BR OVC007
     FM231800 05020G30KT 2SM +RA OVC007
     FM240200 05015G25KT 3SM -RA OVC003
     FM240900 03015G25KT 3SM +RA OVC003
      AMD LTD TO CLD VIS AND WIND=



000
FTUS41 KCAR 231600 AAE
TAFBGR
TAF AMD
KBGR 231600Z 2316/2412 03012G25KT 6SM -RA OVC014
      TEMPO 2316/2317 2SM RA BR OVC008
     FM231700 03015G25KT 3SM RA SCT007 OVC015
     FM232000 04014G21KT 3SM RA OVC010
     FM240200 05016KT 2SM RA OVC007=



000
FTUS41 KCAR 231600 AAE
TAFBGR
TAF AMD
KBGR 231600Z 2316/2412 03012G25KT 6SM -RA OVC014
      TEMPO 2316/2317 2SM RA BR OVC008
     FM231700 03015G25KT 3SM RA SCT007 OVC015
     FM232000 04014G21KT 3SM RA OVC010
     FM240200 05016KT 2SM RA OVC007=



000
FTUS41 KCAR 231500 AAC
TAFHUL
TAF AMD
KHUL 231559Z 2316/2412 03012G20KT 6SM -RA OVC012
     FM231800 05012G22KT 3SM +RA SCT007 OVC015
     FM240000 04015G25KT 3SM RA OVC007=



000
FTUS41 KCAR 231500 AAC
TAFHUL
TAF AMD
KHUL 231559Z 2316/2412 03012G20KT 6SM -RA OVC012
     FM231800 05012G22KT 3SM +RA SCT007 OVC015
     FM240000 04015G25KT 3SM RA OVC007=



000
FTUS41 KCAR 231500 AAD
TAFBGR
TAF AMD
KBGR 231545Z 2316/2412 04012G20KT 6SM -RA OVC012
      TEMPO 2316/2317 3SM RA BR OVC008
     FM231700 03015G25KT 3SM RA SCT007 OVC015
     FM232000 04014G21KT 3SM RA OVC010
     FM240200 05016KT 2SM RA OVC007=



000
FTUS41 KCAR 231500 AAA
TAFCAR
TAF AMD
KCAR 231518Z 2315/2412 04012KT P6SM -RA OVC035
     FM232200 04015G25KT P6SM -RA OVC015
     FM240300 04015G22KT 4SM RA OVC015
     FM240900 02013G22KT 2SM +RA OVC007=



000
FTUS41 KCAR 231400 AAC
TAFBGR
TAF AMD
KBGR 231448Z 2315/2412 04012G20KT 6SM -RA OVC010
     FM231700 03015G25KT 3SM RA SCT007 OVC015
     FM232000 04014G21KT 3SM RA OVC010
     FM240200 05016KT 2SM RA OVC007=



000
FTUS41 KCAR 231400 AAC
TAFBGR
TAF AMD
KBGR 231448Z 2315/2412 04012G20KT 6SM -RA OVC010
     FM231700 03015G25KT 3SM RA SCT007 OVC015
     FM232000 04014G21KT 3SM RA OVC010
     FM240200 05016KT 2SM RA OVC007=



000
FTUS41 KCAR 231400 AAB
TAFHUL
TAF AMD
KHUL 231447Z 2315/2412 04012G22KT 5SM -RA OVC015
     FM231600 03015G25KT 6SM -RA OVC007
     FM231800 05012G22KT 3SM +RA SCT007 OVC015
     FM240000 04015G25KT 3SM RA OVC007=



000
FTUS41 KCAR 231400 AAB
TAFHUL
TAF AMD
KHUL 231447Z 2315/2412 04012G22KT 5SM -RA OVC015
     FM231600 03015G25KT 6SM -RA OVC007
     FM231800 05012G22KT 3SM +RA SCT007 OVC015
     FM240000 04015G25KT 3SM RA OVC007=



000
FTUS41 KCAR 231400 AAC
TAFBHB
TAF AMD
KBHB 231446Z 2315/2412 05018G28KT 5SM -RA OVC010
     FM231800 05020G30KT 2SM +RA OVC007
     FM240200 05015G25KT 3SM -RA OVC003
     FM240900 03015G25KT 3SM +RA OVC003
      AMD LTD TO CLD VIS AND WIND=



000
FTUS41 KCAR 231400 AAC
TAFBHB
TAF AMD
KBHB 231446Z 2315/2412 05018G28KT 5SM -RA OVC010
     FM231800 05020G30KT 2SM +RA OVC007
     FM240200 05015G25KT 3SM -RA OVC003
     FM240900 03015G25KT 3SM +RA OVC003
      AMD LTD TO CLD VIS AND WIND=



000
FTUS41 KCAR 231400 AAB
TAFPQI
TAF AMD
KPQI 231445Z 2315/2412 04009KT P6SM -RA SCT018 OVC070
     FM232200 04012G22KT P6SM -RA OVC015
     FM240300 04015G25KT 4SM -RA OVC015
     FM240700 04015G25KT 2SM +RA OVC010
      AMD LTD TO CLD VIS AND WIND=



000
FTUS41 KCAR 231400 AAB
TAFPQI
TAF AMD
KPQI 231445Z 2315/2412 04009KT P6SM -RA SCT018 OVC070
     FM232200 04012G22KT P6SM -RA OVC015
     FM240300 04015G25KT 4SM -RA OVC015
     FM240700 04015G25KT 2SM +RA OVC010
      AMD LTD TO CLD VIS AND WIND=



000
FTUS41 KCAR 231400 AAB
TAFBHB
TAF AMD
KBHB 231420Z 2314/2412 05018G35KT 5SM -RA OVC010
     FM231800 05020G30KT 2SM +RA OVC007
     FM240200 05015G25KT 3SM -RA OVC003
     FM240900 03015G25KT 3SM +RA OVC003
      AMD LTD TO CLD VIS AND WIND=



000
FTUS41 KCAR 231400 AAB
TAFBGR
TAF AMD
KBGR 231420Z 2314/2412 04015G25KT 5SM -RA OVC010
     FM231700 03015G25KT 3SM RA SCT007 OVC015
     FM232000 04014G21KT 3SM RA OVC010
     FM240200 05016KT 2SM RA OVC007=



000
FTUS41 KCAR 231300 AAA
TAFBHB
TAF AMD
KBHB 231339Z 2314/2412 05015G25KT 6SM -RA OVC010
     FM231800 05020G30KT 2SM +RA OVC007
     FM240200 05015G25KT 3SM -RA OVC003
     FM240900 03015G25KT 3SM +RA OVC003
      AMD LTD TO CLD VIS AND WIND=



000
FTUS41 KCAR 231300 AAA
TAFHUL
TAF AMD
KHUL 231338Z 2314/2412 04012G20KT P6SM -RA OVC010
     FM231600 03015G25KT 6SM -RA OVC007
     FM231800 05012G22KT 3SM +RA SCT007 OVC015
     FM240000 04015G25KT 3SM RA OVC007=



000
FTUS41 KCAR 231300 AAA
TAFBGR
TAF AMD
KBGR 231337Z 2314/2412 04015KT 2SM +RA OVC007
     FM231700 03015G25KT 3SM RA SCT007 OVC015
     FM232000 04014G21KT 3SM RA OVC010
     FM240200 05016KT 2SM RA OVC007=



000
FTUS41 KCAR 231300 AAA
TAFPQI
TAF AMD
KPQI 231337Z 2314/2412 04009G18KT P6SM -RA OVC018
     FM232200 04012G22KT P6SM -RA OVC015
     FM240300 04015G25KT 4SM -RA OVC015
     FM240700 04015G25KT 2SM +RA OVC010
      AMD LTD TO CLD VIS AND WIND=



000
FTUS41 KCAR 231100
TAFBHB
TAF
KBHB 231126Z 2312/2412 05015G25KT 5SM RA OVC010
     FM231400 05020G27KT 3SM RA OVC007
     FM231800 05020G30KT 2SM +RA OVC007
     FM240200 05015G25KT 3SM -RA OVC003
     FM240900 03015G25KT 3SM +RA OVC003
      AMD LTD TO CLD VIS AND WIND=



000
FTUS41 KCAR 231100
TAFHUL
TAF
KHUL 231126Z 2312/2412 05012KT P6SM -RA SCT007 OVC010
     FM231400 03015G25KT 3SM -RA OVC007
     FM231800 05012G22KT 3SM +RA SCT007 OVC015
     FM240000 04015G25KT 3SM RA OVC007=



000
FTUS41 KCAR 231100
TAFBGR
TAF
KBGR 231126Z 2312/2412 04015KT 6SM -RA OVC010
     FM231400 04015KT 2SM +RA OVC007
     FM231700 03015G25KT 3SM RA SCT007 OVC015
     FM232000 04014G21KT 3SM RA OVC010
     FM240200 05016KT 2SM RA OVC007=



000
FTUS41 KCAR 231100
TAFCAR
TAF
KCAR 231126Z 2312/2412 04011KT P6SM SCT025 OVC070
     FM231500 04012G22KT P6SM -RA OVC025
     FM232200 04015G25KT P6SM -RA OVC015
     FM240300 04015G22KT 4SM RA OVC015
     FM240900 02013G22KT 2SM +RA OVC007=



000
FTUS41 KCAR 231100
TAFPQI
TAF
KPQI 231126Z 2312/2412 04011KT P6SM -RA SCT025 OVC035
     FM231400 04010G20KT P6SM OVC025
     FM232200 04012G22KT P6SM -RA OVC015
     FM240300 04015G25KT 4SM -RA OVC015
     FM240700 04015G25KT 2SM +RA OVC010
      AMD LTD TO CLD VIS AND WIND=



000
FTUS41 KCAR 231000 AAA
TAFBHB
TAF AMD
KBHB 231043Z 2311/2406 05015G25KT 2SM -RA SCT007 OVC015
     FM231200 04015G25KT 5SM -RA OVC007
     FM231600 04020G30KT 3SM -RA SCT003 OVC007
     FM240000 05016G24KT 2SM -RA OVC003
      AMD LTD TO CLD VIS AND WIND=



000
FTUS41 KCAR 231000 AAA
TAFBGR
TAF AMD
KBGR 231042Z 2311/2406 04012G22KT P6SM -RA SCT007 OVC015
     FM231200 04015G25KT 3SM RA SCT003 OVC007
     FM231900 02020G30KT 2SM RA SCT007 OVC015
     FM232300 02020G30KT 4SM -RA OVC006=



000
FTUS41 KCAR 230800 AAA
TAFHUL
TAF AMD
KHUL 230832Z 2309/2406 05012G22KT P6SM -RA SCT007 OVC015
     FM231100 05012KT 3SM -RA SCT007 OVC015
     FM231700 05012G22KT 3SM +RA OVC010
     FM240000 05016G24KT 3SM +RA OVC007=



000
FTUS41 KCAR 230500
TAFPQI
TAF
KPQI 230540Z 2306/2406 04010KT P6SM SCT025 OVC040
     FM230800 04010KT 6SM -RA OVC025
     FM231100 04012KT P6SM -RA OVC015
     FM231600 04012G22KT P6SM -RA OVC025
     FM232100 04015G25KT P6SM -RA OVC020
     FM240300 08015G25KT P6SM -RA OVC015
      AMD LTD TO CLD VIS AND WIND=



000
FTUS41 KCAR 230500
TAFHUL
TAF
KHUL 230540Z 2306/2406 05012KT P6SM -RA OVC015
     FM230800 05012KT 5SM -RA OVC007
     FM231100 05012KT 3SM -RA SCT007 OVC015
     FM231700 05012G22KT 3SM +RA OVC010
     FM240000 05016G24KT 3SM +RA OVC007=



000
FTUS41 KCAR 230500
TAFCAR
TAF
KCAR 230540Z 2306/2406 05010KT P6SM -RA SCT025 OVC040
     FM230900 04010KT P6SM -RA OVC015
     FM231600 04012KT P6SM SCT015 OVC025
     FM232000 04015G25KT P6SM OVC025
     FM232300 04014G22KT P6SM -RA OVC015
     FM240300 06015G23KT P6SM -RA SCT007 OVC010=



000
FTUS41 KCAR 230500
TAFBHB
TAF
KBHB 230540Z 2306/2406 04015G25KT P6SM -RA OVC007
     FM230800 05019G26KT 3SM -RA SCT003 OVC007
     FM231000 05020G30KT 2SM -RA OVC003
     FM231600 04020G30KT 3SM -RA SCT003 OVC007
     FM240000 05016G24KT 2SM -RA OVC003
      AMD LTD TO CLD VIS AND WIND=



000
FTUS41 KCAR 230500
TAFBGR
TAF
KBGR 230540Z 2306/2406 04013KT 6SM -RA OVC007
     FM231000 04014KT 3SM -RA OVC003
     FM231600 04015G25KT 3SM +RA SCT003 OVC007
     FM232200 02020G30KT 4SM -RA OVC006=



000
FTUS41 KCAR 222300
TAFPQI
TAF
KPQI 222335Z 2300/2324 04010KT P6SM OVC090
     FM230300 04010KT P6SM OVC015
     FM230600 04010KT P6SM VCSH OVC008
     FM231400 04011KT 3SM -RA OVC010
      AMD LTD TO CLD VIS AND WIND=



000
FTUS41 KCAR 222300
TAFCAR
TAF
KCAR 222335Z 2300/2324 04010KT P6SM OVC080
     FM230300 05010KT P6SM OVC015
     FM231600 04011KT 3SM -RA OVC010=



000
FTUS41 KCAR 222300
TAFHUL
TAF
KHUL 222335Z 2300/2324 05011KT 6SM -RA OVC060
     FM232100 05015KT 4SM -RA OVC008
     FM232300 05016G23KT 2SM -RA OVC008=



000
FTUS41 KCAR 222300
TAFBHB
TAF
KBHB 222335Z 2300/2324 04018G25KT 4SM -RA OVC012
     FM231200 05020G28KT 3/4SM +RA OVC003
      AMD LTD TO CLD VIS AND WIND=



000
FTUS41 KCAR 222300
TAFBGR
TAF
KBGR 222335Z 2300/2324 04014KT 2SM -RA OVC012
     FM231200 04015KT 1SM +RA OVC005=



000
FTUS41 KCAR 222300
TAFPQI
TAF
KPQI 222333Z 2300/2324 04010KT P6SM OVC090
     FM230300 04010KT P6SM OVC015
     FM230600 04010KT P6SM VCSH OVC008
     FM231400 04011KT 3SM -RA OVC010
      AMD LTD TO CLD VIS AND WIND=



000
FTUS41 KCAR 222300
TAFBGR
TAF
KBGR 222333Z 2300/2324 04014KT 2SM -RA OVC012
     FM231200 04015KT 1SM +RA OVC005=



000
FTUS41 KCAR 222300
TAFBHB
TAF
KBHB 222333Z 2300/2324 04018G25KT 4SM -RA OVC012
     FM231200 05020G28KT 3/4SM +RA OVC003
      AMD LTD TO CLD VIS AND WIND=



000
FTUS41 KCAR 222300
TAFCAR
TAF
KCAR 222333Z 2300/2324 04010KT P6SM OVC080
     FM230300 05010KT P6SM OVC015
     FM231600 04011KT 3SM -RA OVC010=



000
FTUS41 KCAR 222300
TAFHUL
TAF
KHUL 222333Z 2300/2324 05011KT 2SM -RA OVC060
     FM232100 05015KT 2SM -RA OVC008
     FM232300 05016G23KT 2SM -RA OVC008=



000
FTUS41 KCAR 222100 AAA
TAFBGR
TAF AMD
KBGR 222105Z 2221/2318 04015G26KT 6SM -RA BKN020 OVC050
     FM222200 04014G21KT 4SM -RA SCT008 OVC015=



000
FTUS41 KCAR 222100 AAA
TAFHUL
TAF AMD
KHUL 222104Z 2221/2318 05013G23KT P6SM BKN060
     FM222300 05013KT 4SM -RA OVC025
     FM230400 06012KT 5SM -RA OVC015
     FM230900 06013KT P6SM -RA OVC008=



000
FTUS41 KCAR 221700
TAFBHB
TAF
KBHB 221733Z 2218/2318 05016G25KT 6SM -RA BKN015 OVC025
     FM222200 04016G27KT 4SM -RA SCT008 OVC015
     FM230600 03015G25KT 4SM -RA OVC008
      AMD LTD TO CLD VIS AND WIND=



000
FTUS41 KCAR 221700
TAFHUL
TAF
KHUL 221733Z 2218/2318 05013G23KT P6SM BKN060
     FM222100 05013KT P6SM -RA OVC030
     FM222300 05013KT 4SM -RA OVC025
     FM230400 06012KT 5SM -RA OVC015
     FM230900 06013KT P6SM -RA OVC008=



000
FTUS41 KCAR 221700
TAFCAR
TAF
KCAR 221733Z 2218/2318 05012G18KT P6SM SCT025
     FM230000 05011KT P6SM -RA OVC030
     FM230200 05011KT P6SM -RA OVC020=



000
FTUS41 KCAR 221700
TAFPQI
TAF
KPQI 221733Z 2218/2318 05012G20KT P6SM SCT050
     FM222300 05012KT P6SM -RA OVC030
     FM230200 05011KT P6SM -RA OVC020
      AMD LTD TO CLD VIS AND WIND=



000
FTUS41 KCAR 221700
TAFBGR
TAF
KBGR 221733Z 2218/2318 04015G26KT 6SM -RA SCT025 OVC050
      TEMPO 2218/2222 4SM -RA BR SCT015 BKN025
     FM222200 04014G21KT 4SM -RA SCT008 OVC015=



000
FTUS41 KCAR 221700
TAFCAR
TAF
KCAR 221733Z 2218/2318 05012G18KT P6SM SCT025
     FM230000 05011KT P6SM -RA OVC030
     FM230200 05011KT P6SM -RA OVC020=



000
FTUS41 KCAR 221700
TAFPQI
TAF
KPQI 221733Z 2218/2318 05012G20KT P6SM SCT050
     FM222300 05012KT P6SM -RA OVC030
     FM230200 05011KT P6SM -RA OVC020
      AMD LTD TO CLD VIS AND WIND=



000
FTUS41 KCAR 221700
TAFBGR
TAF
KBGR 221733Z 2218/2318 04015G26KT 6SM -RA SCT025 OVC050
      TEMPO 2218/2222 4SM -RA BR SCT015 BKN025
     FM222200 04014G21KT 4SM -RA SCT008 OVC015=



000
FTUS41 KCAR 221700
TAFHUL
TAF
KHUL 221733Z 2218/2318 05013G23KT P6SM BKN060
     FM222100 05013KT P6SM -RA OVC030
     FM222300 05013KT 4SM -RA OVC025
     FM230400 06012KT 5SM -RA OVC015
     FM230900 06013KT P6SM -RA OVC008=



000
FTUS41 KCAR 221700
TAFBHB
TAF
KBHB 221733Z 2218/2318 05016G25KT 6SM -RA BKN015 OVC025
     FM222200 04016G27KT 4SM -RA SCT008 OVC015
     FM230600 03015G25KT 4SM -RA OVC008
      AMD LTD TO CLD VIS AND WIND=



000
FTUS41 KCAR 221400 AAB
TAFBHB
TAF AMD
KBHB 221420Z 2214/2312 03014G20KT P6SM -RA SCT015 OVC050
     FM221800 05016G25KT 2SM -RA SCT008 OVC025
     FM230900 06020G28KT 2SM -RA OVC008
      AMD LTD TO CLD VIS AND WIND=



000
FTUS41 KCAR 221400 AAA
TAFBGR
TAF AMD
KBGR 221418Z 2214/2312 02010KT P6SM -RA SCT012 BKN030
     FM221800 05016G25KT 5SM -RA SCT008 OVC025=



000
FTUS41 KCAR 221400 AAA
TAFHUL
TAF AMD
KHUL 221417Z 2214/2312 06012G22KT P6SM BKN070
     FM221800 06013KT 6SM -RA OVC025
     FM230200 05014KT 3SM -RA OVC010=



000
FTUS41 KCAR 221200 AAA
TAFBHB
TAF AMD
KBHB 221256Z 2213/2312 03014G20KT P6SM -RA BKN015 OVC070
     FM221500 05016G25KT 2SM -RA OVC003
     FM230900 06020G28KT 2SM -RA OVC008
      AMD LTD TO CLD VIS AND WIND=



000
FTUS41 KCAR 221100
TAFHUL
TAF
KHUL 221120Z 2212/2312 VRB03KT P6SM BKN070
     FM221400 06010KT 3SM -RA BKN060
     FM221800 06013KT 2SM -RA OVC025
     FM230200 05014KT 3SM -RA OVC010=



000
FTUS41 KCAR 221100
TAFPQI
TAF
KPQI 221120Z 2212/2312 02006KT P6SM BKN110
     FM221500 04010KT P6SM BKN060
     FM222100 05014KT 3SM -RA OVC020
     FM230300 05012KT P6SM OVC015
      AMD LTD TO CLD VIS AND WIND=



000
FTUS41 KCAR 221100
TAFBHB
TAF
KBHB 221120Z 2212/2312 03014G20KT P6SM -RA OVC070
     FM221500 05016G25KT 2SM -RA OVC003
     FM230900 06020G28KT 2SM -RA OVC008
      AMD LTD TO CLD VIS AND WIND=



000
FTUS41 KCAR 221100
TAFBGR
TAF
KBGR 221120Z 2212/2312 02010KT P6SM -RA OVC070
     FM221500 05016G25KT 2SM -RA OVC003=



000
FTUS41 KCAR 221100
TAFCAR
TAF
KCAR 221120Z 2212/2312 02010KT P6SM BKN250
     FM221500 04010KT P6SM BKN110
     FM230000 05012KT 3SM -RA OVC020
     FM230100 05012KT P6SM OVC015=



000
FTUS41 KCAR 221000 AAB
TAFBGR
TAF AMD
KBGR 221051Z 2211/2306 02011KT 5SM -RA BR OVC070
     FM221500 04015G25KT 4SM -RA BR OVC007=



000
FTUS41 KCAR 220800 AAA
TAFBHB
TAF AMD
KBHB 220806Z 2208/2306 05015G22KT 5SM -RA BR OVC070
     FM221200 04017G25KT 2SM -RA BR OVC010
      AMD LTD TO CLD VIS AND WIND=



000
FTUS41 KCAR 220800 AAA
TAFBGR
TAF AMD
KBGR 220806Z 2208/2306 03011KT 5SM -RA BR OVC008=



000
FTUS41 KCAR 220500 RRA
TAFBHB
TAF
KBHB 220553Z 2206/2306 05012G17KT 2SM -RA OVC009
      AMD LTD TO CLD VIS AND WIND=



000
FTUS41 KCAR 220500 RRA
TAFBGR
TAF
KBGR 220553Z 2206/2306 03012KT 5SM -RA BR OVC005=



000
FTUS41 KCAR 220500 RRA
TAFPQI
TAF
KPQI 220553Z 2206/2306 01005KT P6SM OVC050
     FM221500 04010KT P6SM BKN050
     FM222000 05014KT P6SM BKN030
     FM222100 05014KT 3SM -RA OVC025
     FM230300 05012KT P6SM OVC015
      AMD LTD TO CLD VIS AND WIND=



000
FTUS41 KCAR 220500 RRA
TAFHUL
TAF
KHUL 220553Z 2206/2306 35005KT P6SM OVC035
     FM221400 06010KT 3SM -RA BKN040
     FM221800 06013KT 2SM -RA OVC025
     FM230200 05014KT 3SM -RA OVC010
     FM230300 06014KT 3SM -RA OVC008=



000
FTUS41 KCAR 220500 RRA
TAFCAR
TAF
KCAR 220553Z 2206/2306 03007KT P6SM OVC060
     FM221600 04011KT P6SM BKN050
     FM222100 05013KT P6SM BKN030
     FM230000 05012KT 3SM -RA OVC020
     FM230100 05012KT P6SM OVC020=



000
FTUS41 KCAR 220500 RRA
TAFBHB
TAF
KBHB 220553Z 2206/2306 05012G17KT 2SM -RA OVC009
      AMD LTD TO CLD VIS AND WIND=



000
FTUS41 KCAR 220500 RRA
TAFBGR
TAF
KBGR 220553Z 2206/2306 03012KT 5SM -RA BR OVC005=



000
FTUS41 KCAR 220500 RRA
TAFPQI
TAF
KPQI 220553Z 2206/2306 01005KT P6SM OVC050
     FM221500 04010KT P6SM BKN050
     FM222000 05014KT P6SM BKN030
     FM222100 05014KT 3SM -RA OVC025
     FM230300 05012KT P6SM OVC015
      AMD LTD TO CLD VIS AND WIND=



000
FTUS41 KCAR 220500 RRA
TAFHUL
TAF
KHUL 220553Z 2206/2306 35005KT P6SM OVC035
     FM221400 06010KT 3SM -RA BKN040
     FM221800 06013KT 2SM -RA OVC025
     FM230200 05014KT 3SM -RA OVC010
     FM230300 06014KT 3SM -RA OVC008=



000
FTUS41 KCAR 220500 RRA
TAFCAR
TAF
KCAR 220553Z 2206/2306 03007KT P6SM OVC060
     FM221600 04011KT P6SM BKN050
     FM222100 05013KT P6SM BKN030
     FM230000 05012KT 3SM -RA OVC020
     FM230100 05012KT P6SM OVC020=



000
FTUS41 KCAR 220100 AAA
TAFBHB
TAF AMD
KBHB 220149Z 2202/2224 07011KT 4SM -RA BKN007 OVC015
     FM220300 05012KT 3SM RA OVC007
     FM221300 04017G26KT 3SM RA OVC003
      AMD LTD TO CLD VIS AND WIND=



000
FTUS41 KCAR 220100 AAA
TAFBGR
TAF AMD
KBGR 220135Z 2202/2224 06008KT 4SM -RA OVC007
     FM220200 05008KT 3SM -RA OVC007
     FM220900 03012KT 3SM RA OVC010=



000
FTUS41 KCAR 212300
TAFBHB
TAF
KBHB 212322Z 2200/2224 07011KT 4SM -RA BKN007 OVC015
     FM220100 06011KT 4SM -RA OVC012
     FM220300 05012KT 3SM RA OVC010
     FM221300 04017G26KT 3SM RA OVC003
      AMD LTD TO CLD VIS AND WIND=



000
FTUS41 KCAR 212300
TAFBGR
TAF
KBGR 212322Z 2200/2224 06008KT 4SM -RA OVC019
     FM220200 05008KT 3SM -RA OVC020
     FM220900 03012KT 3SM RA OVC015=



000
FTUS41 KCAR 212300
TAFCAR
TAF
KCAR 212322Z 2200/2224 03004KT P6SM BKN070
     FM221200 03008KT P6SM BKN060
     FM221800 05010KT P6SM BKN025=



000
FTUS41 KCAR 212300
TAFPQI
TAF
KPQI 212322Z 2200/2224 03004KT P6SM BKN080
     FM221300 04008KT P6SM BKN060
     FM221700 04011KT P6SM BKN025
      AMD LTD TO CLD VIS AND WIND=



000
FTUS41 KCAR 212300
TAFHUL
TAF
KHUL 212322Z 2200/2224 04004KT P6SM BKN040
     FM221100 05008KT P6SM BKN045
     FM221200 05008KT P6SM BKN030
     FM221400 05011KT 5SM -RA OVC025=



000
FTUS41 KCAR 212300
TAFPQI
TAF
KPQI 212321Z 2200/2224 03004KT P6SM BKN080
     FM221300 04008KT P6SM BKN060
     FM221700 04011KT P6SM BKN025
      AMD LTD TO CLD VIS AND WIND=



000
FTUS41 KCAR 212300
TAFPQI
TAF
KPQI 212321Z 2200/2224 03004KT P6SM BKN080
     FM221300 04008KT P6SM BKN060
     FM221700 04011KT P6SM BKN025
      AMD LTD TO CLD VIS AND WIND=



000
FTUS41 KCAR 212300
TAFCAR
TAF
KCAR 212321Z 2200/2224 03004KT P6SM BKN070
     FM221200 03008KT P6SM BKN060
     FM221800 05010KT P6SM BKN025=



000
FTUS41 KCAR 212300
TAFHUL
TAF
KHUL 212321Z 2200/2224 04004KT P6SM BKN040
     FM221100 05008KT P6SM BKN045
     FM221200 05008KT P6SM BKN030
     FM221400 05011KT 5SM -RA OVC025=



000
FTUS41 KCAR 212300
TAFBGR
TAF
KBGR 212321Z 2200/2224 06008KT 4SM -RA OVC019
     FM220200 05008KT 3SM -RA OVC020
     FM220900 03012KT 3SM RA OVC015=



000
FTUS41 KCAR 212300
TAFCAR
TAF
KCAR 212321Z 2200/2224 03004KT P6SM BKN070
     FM221200 03008KT P6SM BKN060
     FM221800 05010KT P6SM BKN025=



000
FTUS41 KCAR 212300
TAFBHB
TAF
KBHB 212321Z 2200/2224 07011KT 4SM -RA OVC015
     FM220100 06011KT 4SM -RA OVC015
     FM220300 05012KT 3SM RA OVC010
     FM221300 04017G26KT 3SM RA OVC003
      AMD LTD TO CLD VIS AND WIND=



000
FTUS41 KCAR 212300
TAFBGR
TAF
KBGR 212321Z 2200/2224 06008KT 4SM -RA OVC019
     FM220200 05008KT 3SM -RA OVC020
     FM220900 03012KT 3SM RA OVC015=



000
FTUS41 KCAR 212300
TAFBHB
TAF
KBHB 212321Z 2200/2224 07011KT 4SM -RA OVC015
     FM220100 06011KT 4SM -RA OVC015
     FM220300 05012KT 3SM RA OVC010
     FM221300 04017G26KT 3SM RA OVC003
      AMD LTD TO CLD VIS AND WIND=



000
FTUS41 KCAR 212300
TAFHUL
TAF
KHUL 212321Z 2200/2224 04004KT P6SM BKN040
     FM221100 05008KT P6SM BKN045
     FM221200 05008KT P6SM BKN030
     FM221400 05011KT 5SM -RA OVC025=



000
FTUS41 KCAR 212300 AAA
TAFBHB
TAF AMD
KBHB 212303Z 2123/2218 06011KT 6SM -RA OVC015
     FM220200 06012KT 4SM -RA OVC015
     FM220600 04014G22KT 3SM RA OVC008
     FM221400 04020G29KT 3SM RA OVC008
      AMD LTD TO CLD VIS AND WIND=



000
FTUS41 KCAR 212300 AAA
TAFBHB
TAF AMD
KBHB 212303Z 2123/2218 06011KT 6SM -RA OVC015
     FM220200 06012KT 4SM -RA OVC015
     FM220600 04014G22KT 3SM RA OVC008
     FM221400 04020G29KT 3SM RA OVC008
      AMD LTD TO CLD VIS AND WIND=



000
FTUS41 KCAR 212300 AAB
TAFBGR
TAF AMD
KBGR 212303Z 2123/2218 07008KT 6SM -RA OVC025
     FM220200 05012KT 5SM -RA OVC015
     FM220900 03015G23KT 3SM -RA OVC009=



000
FTUS41 KCAR 212300 AAB
TAFBGR
TAF AMD
KBGR 212303Z 2123/2218 07008KT 6SM -RA OVC025
     FM220200 05012KT 5SM -RA OVC015
     FM220900 03015G23KT 3SM -RA OVC009=



000
FTUS41 KCAR 211800 AAA
TAFBGR
TAF AMD
KBGR 211851Z 2119/2218 07006KT P6SM OVC035
     FM212000 07008KT 6SM -RA OVC025
     FM220200 05012KT 5SM -RA OVC015
     FM220900 03015G23KT 3SM -RA OVC009=



000
FTUS41 KCAR 211700
TAFCAR
TAF
KCAR 211729Z 2118/2218 03005KT P6SM OVC050
     FM221200 04011KT P6SM OVC035=



000
FTUS41 KCAR 211700
TAFHUL
TAF
KHUL 211729Z 2118/2218 02005KT P6SM OVC060
     FM220600 04007KT P6SM OVC035
     FM221400 05012KT 5SM -RA OVC025=



000
FTUS41 KCAR 211700
TAFBHB
TAF
KBHB 211729Z 2118/2218 07005KT P6SM -RA OVC045
     FM212100 06011KT 6SM -RA OVC025
     FM220200 06012KT 4SM -RA OVC015
     FM220600 04014G22KT 3SM RA OVC008
     FM221400 04020G29KT 3SM RA OVC008
      AMD LTD TO CLD VIS AND WIND=



000
FTUS41 KCAR 211700
TAFBGR
TAF
KBGR 211729Z 2118/2218 07006KT P6SM OVC030
     FM212000 07008KT 6SM -RA OVC025
     FM220200 05012KT 5SM -RA OVC015
     FM220900 03015G23KT 3SM -RA OVC009=



000
FTUS41 KCAR 211700
TAFPQI
TAF
KPQI 211729Z 2118/2218 03005KT P6SM OVC050
     FM221200 04011KT P6SM OVC035
      AMD LTD TO CLD VIS AND WIND=



    US Dept of Commerce
    National Oceanic and Atmospheric Administration
    National Weather Service
    1325 East West Highway
    Silver Spring, MD 20910
    Page Author: NWS Internet Services Team
Disclaimer
Information Quality
Credits
Glossary
Privacy Policy
Freedom of Information Act (FOIA)
About Us
Career Opportunities